Nearby METAR Reports

 

KAWO - Arlington Muni, Washington, USA
Distance from station: WSW 26mi, 42km
Updated: Wed, 01-Oct-2014 10:55am PDT
Overcast
Overcast
 Wind from SSE
Wind: SSE 8 mph , 13 km/h
Temperature: 57°F , 14°C
Dew Point: 48°F , 9°C
Humidity: 72%
Barometer: 30.24 inHg , 1024 hPa
Clouds: Overcast
Visibility: 10 miles , 16 km
Cloud details: Few Clouds 1700 ft
Mostly cloudy 3100 ft
Overcast 7000 ft
2014/10/01 17:55 KAWO 011755Z AUTO 16007KT 10SM FEW017 BKN031 OVC070 14/09 A3024 RMK AO1 10140 20110 52007
KPAE - Everett, Washington, USA
Distance from station: SW 39mi, 62km
Updated: Wed, 01-Oct-2014 10:53am PDT
Overcast
Overcast
 Wind from S
Wind: S 6 mph , 9 km/h
Temperature: 57°F , 14°C
Dew Point: 50°F , 10°C
Humidity: 77%
Barometer: 30.23 inHg , 1023.7 hPa
Clouds: Overcast
Visibility: 10 miles , 16 km
Cloud details: Partly cloudy 1300 ft
Partly cloudy 1900 ft
Overcast 5000 ft
2014/10/01 17:53 KPAE 011753Z 18005KT 10SM SCT013 SCT019 OVC050 14/10 A3023 RMK AO2 SLP236 T01440100 10144 20106 50006
 
KBVS - Burlington/Mt V, Washington, USA
Distance from station: WNW 40mi, 64km
Updated: Wed, 01-Oct-2014 10:55am PDT
Overcast
Overcast
 Wind from SSE
Wind: SSE 7 mph , 11 km/h
Temperature: 59°F , 15°C
Dew Point: 54°F , 12°C
Humidity: 82%
Barometer: 30.22 inHg , 1023.4 hPa
Clouds: Overcast
Visibility: 10 miles , 16 km
Cloud details: Mostly cloudy 1500 ft
Overcast 6000 ft
2014/10/01 17:55 KBVS 011755Z AUTO 16006KT 10SM BKN015 OVC060 15/12 A3022 RMK A01 P000
KNUW - Whidbey Is. Nas, Washington, USA
Distance from station: W 48mi, 78km
Updated: Wed, 01-Oct-2014 10:56am PDT
Overcast
Overcast
 Wind from SSW
Wind: SSW 7 mph , 11 km/h
Temperature: 61°F , 16°C
Dew Point: 50°F , 10°C
Humidity: 68%
Barometer: 30.22 inHg , 1023.4 hPa
Clouds: Overcast
Visibility: 10 miles , 16 km
Cloud details: Few Clouds 2500 ft
Mostly cloudy 3700 ft
Mostly cloudy 6000 ft
Overcast 25000 ft
2014/10/01 17:56 KNUW 011756Z 21006KT 10SM FEW025 BKN037 BKN060 OVC250 16/10 A3022 RMK AO2 SLP237 T01610100 10167 20111 50005 $
 
KBLI - Bellingham, Washington, USA
Distance from station: NW 57mi, 91km
Updated: Wed, 01-Oct-2014 10:53am PDT
Overcast
Overcast
 Wind from S
Wind: S 10 mph , 17 km/h
Temperature: 57°F , 14°C
Dew Point: 50°F , 10°C
Humidity: 77%
Barometer: 30.20 inHg , 1022.7 hPa
Clouds: Overcast
Visibility: 10 miles , 16 km
Cloud details: Overcast 6500 ft
2014/10/01 17:53 KBLI 011753Z 17009KT 10SM OVC065 14/10 A3020 RMK AO2 SLP232 T01390100 10144 20117 50005
KBFI - Seattle/Boeing, Washington, USA
Distance from station: SW 58mi, 94km
Updated: Wed, 01-Oct-2014 11:00am PDT
Overcast
Overcast
 Wind from SE
Wind: SE 7 mph , 11 km/h
Temperature: 59°F , 15°C
Dew Point: 50°F , 10°C
Humidity: 72%
Barometer: 30.23 inHg , 1023.7 hPa
Clouds: Overcast
Visibility: 10 miles , 16 km
Cloud details: Overcast 1700 ft
2014/10/01 18:00 KBFI 011800Z 14006KT 10SM OVC017 15/10 A3023 RMK AO2